Time;durP1;ratioP1;P1;durP2;ratioP2;P2;SDS_P1;SDS_P2;PMS_P1;PMS_P2;Temp;Humidity;BMP_temperature;BMP_pressure;BME280_temperature;BME280_humidity;BME280_pressure;Samples;Min_cycle;Max_cycle;Signal;HPM_P1;HPM_P2
2022/08/01 00:01:41;;;;;;;10.60;9.50;;;;;;;15.15;76.71;100240.90;110469;1253;24914;-79
2022/08/01 00:04:09;;;;;;;11.40;10.10;;;;;;;15.12;76.77;100235.73;110320;1257;23000;-79
2022/08/01 00:06:38;;;;;;;12.40;10.20;;;;;;;15.09;76.97;100231.55;110156;1259;24287;-79
2022/08/01 00:09:07;;;;;;;11.40;10.10;;;;;;;15.05;76.90;100232.04;110307;1257;22022;-78
2022/08/01 00:11:36;;;;;;;11.10;9.80;;;;;;;14.97;76.88;100234.09;110157;1257;23074;-79
2022/08/01 00:14:06;;;;;;;11.30;9.70;;;;;;;14.92;77.02;100228.42;110326;1257;21976;-78
2022/08/01 00:16:36;;;;;;;11.30;9.60;;;;;;;14.87;77.07;100230.45;110350;1257;22889;-78
2022/08/01 00:19:05;;;;;;;10.70;9.60;;;;;;;14.84;77.13;100230.20;110343;1257;23671;-78
2022/08/01 00:21:34;;;;;;;12.00;9.40;;;;;;;14.81;77.31;100231.25;110155;1255;21957;-78
2022/08/01 00:24:02;;;;;;;10.20;9.30;;;;;;;14.78;77.37;100229.02;110745;1251;23027;-79
2022/08/01 00:26:31;;;;;;;12.20;8.20;;;;;;;14.78;77.60;100226.04;110846;1250;21954;-78
2022/08/01 00:29:00;;;;;;;17.40;9.10;;;;;;;14.80;77.79;100227.19;110881;1250;22010;-78
2022/08/01 00:31:39;;;;;;;9.90;8.90;;;;;;;14.80;77.82;100223.39;110873;1251;21953;-78
2022/08/01 00:34:08;;;;;;;13.10;9.20;;;;;;;14.81;77.80;100221.19;110857;1250;23085;-79
2022/08/01 00:36:37;;;;;;;9.70;8.50;;;;;;;14.79;77.55;100221.05;110609;1251;21978;-77
2022/08/01 00:39:05;;;;;;;13.50;10.00;;;;;;;14.71;77.33;100220.52;110834;1250;22041;-78
2022/08/01 00:41:35;;;;;;;9.60;8.60;;;;;;;14.62;77.32;100221.55;110706;1251;22623;-79
2022/08/01 00:44:07;;;;;;;9.70;8.40;;;;;;;14.54;77.41;100223.55;110692;1251;22706;-78
2022/08/01 00:46:35;;;;;;;9.70;8.80;;;;;;;14.50;77.62;100222.38;110653;1251;23552;-78
2022/08/01 00:49:05;;;;;;;10.80;9.40;;;;;;;14.46;77.73;100225.13;110510;1253;22980;-78
2022/08/01 00:51:39;;;;;;;12.40;9.00;;;;;;;14.44;77.93;100223.05;110707;1252;23601;-77
2022/08/01 00:54:08;;;;;;;12.40;10.20;;;;;;;14.43;78.01;100226.52;110909;1250;21953;-78
2022/08/01 00:56:41;;;;;;;11.90;10.40;;;;;;;14.45;78.24;100229.04;110782;1253;22418;-78
2022/08/01 00:59:12;;;;;;;10.70;9.70;;;;;;;14.47;78.36;100226.77;110716;1253;22003;-78
2022/08/01 01:01:41;;;;;;;11.20;9.40;;;;;;;14.51;78.55;100231.05;110762;1251;21950;-79
2022/08/01 01:04:15;;;;;;;10.00;8.90;;;;;;;14.54;78.52;100226.55;111194;1250;21964;-78
2022/08/01 01:07:22;;;;;;;10.50;9.60;;;;;;;14.57;78.34;100229.39;110533;1251;21957;-78
2022/08/01 01:10:04;;;;;;;11.50;9.10;;;;;;;14.57;78.28;100227.14;110856;1250;22756;-78
2022/08/01 01:12:51;;;;;;;10.30;8.50;;;;;;;14.55;78.19;100221.44;110912;1250;21960;-77
2022/08/01 01:15:41;;;;;;;10.70;9.60;;;;;;;14.55;78.17;100221.69;110886;1250;23556;-77
2022/08/01 01:18:20;;;;;;;10.50;9.60;;;;;;;14.55;78.11;100217.30;110722;1251;24273;-77
2022/08/01 01:21:03;;;;;;;10.30;8.90;;;;;;;14.53;78.09;100213.65;110840;1250;21965;-78
2022/08/01 01:24:31;;;;;;;12.70;11.40;;;;;;;14.52;78.12;100212.99;110639;1251;22745;-78
2022/08/01 01:27:08;;;;;;;11.90;10.30;;;;;;;14.50;78.25;100214.56;110422;1257;23681;-78
2022/08/01 01:29:50;;;;;;;11.30;10.10;;;;;;;14.47;78.09;100212.26;109535;1263;21991;-78
2022/08/01 01:32:47;;;;;;;11.50;9.60;;;;;;;14.43;78.06;100208.83;109519;1263;23061;-77
2022/08/01 01:35:33;;;;;;;11.90;10.80;;;;;;;14.37;78.00;100206.77;109318;1264;23589;-77
2022/08/01 01:38:14;;;;;;;11.80;10.40;;;;;;;14.31;78.02;100204.17;109472;1264;23516;-78
2022/08/01 01:40:45;;;;;;;9.40;8.40;;;;;;;14.25;78.18;100198.39;109189;1265;23056;-78
2022/08/01 01:43:15;;;;;;;9.90;8.20;;;;;;;14.25;78.40;100197.20;109490;1264;21981;-78
2022/08/01 01:45:47;;;;;;;10.10;8.20;;;;;;;14.24;78.49;100195.35;109286;1264;23146;-78
2022/08/01 01:48:22;;;;;;;9.80;8.20;;;;;;;14.20;78.42;100191.56;109724;1260;21966;-78
2022/08/01 01:50:52;;;;;;;11.50;9.40;;;;;;;14.14;78.39;100193.41;110289;1259;21967;-78
2022/08/01 01:53:23;;;;;;;9.60;8.70;;;;;;;14.09;78.43;100191.87;110002;1260;21968;-78
2022/08/01 01:55:55;;;;;;;10.80;9.50;;;;;;;14.04;78.48;100190.94;110004;1260;21971;-77
2022/08/01 01:58:27;;;;;;;10.50;9.50;;;;;;;14.03;78.78;100190.59;110014;1260;23046;-77
2022/08/01 02:01:00;;;;;;;10.50;8.20;;;;;;;14.01;78.88;100194.10;109918;1259;21973;-77
2022/08/01 02:03:32;;;;;;;11.80;9.20;;;;;;;14.01;78.98;100191.15;110497;1253;21955;-77
2022/08/01 02:06:01;;;;;;;10.20;9.30;;;;;;;14.02;79.10;100194.18;110625;1253;22302;-78
2022/08/01 02:08:32;;;;;;;10.50;9.50;;;;;;;14.05;79.19;100194.90;110472;1253;21951;-78
2022/08/01 02:11:18;;;;;;;12.00;9.70;;;;;;;14.08;79.30;100194.73;110590;1253;22009;-77
2022/08/01 02:14:00;;;;;;;11.00;9.20;;;;;;;14.10;79.42;100193.34;110563;1253;23039;-77
2022/08/01 02:16:36;;;;;;;10.70;9.60;;;;;;;14.12;79.35;100191.52;110535;1254;21957;-77
2022/08/01 02:19:05;;;;;;;9.80;8.80;;;;;;;14.15;79.31;100187.13;110664;1253;21962;-78
2022/08/01 02:21:51;;;;;;;13.30;8.60;;;;;;;14.18;79.27;100184.81;110570;1254;22030;-78
2022/08/01 02:25:02;;;;;;;10.00;8.80;;;;;;;14.19;79.09;100186.20;110471;1254;23474;-77
2022/08/01 02:27:43;;;;;;;10.10;9.00;;;;;;;14.20;79.04;100187.06;110795;1251;21956;-77
2022/08/01 02:30:14;;;;;;;9.50;8.50;;;;;;;14.18;78.88;100187.21;110693;1253;21956;-78
2022/08/01 02:32:49;;;;;;;9.80;8.90;;;;;;;14.16;78.91;100188.23;110855;1252;22251;-78
2022/08/01 02:35:33;;;;;;;9.60;8.70;;;;;;;14.14;78.89;100191.85;110556;1254;23026;-78
2022/08/01 02:38:26;;;;;;;9.90;9.00;;;;;;;14.10;78.97;100191.80;110682;1253;21923;-77
2022/08/01 02:40:59;;;;;;;10.00;9.00;;;;;;;14.07;79.14;100191.04;110692;1253;21997;-77
2022/08/01 02:43:32;;;;;;;10.60;8.70;;;;;;;14.07;79.23;100189.55;110511;1253;21966;-77
2022/08/01 02:46:04;;;;;;;16.20;10.30;;;;;;;14.06;79.18;100188.83;110593;1253;23614;-79
2022/08/01 02:48:36;;;;;;;11.00;9.20;;;;;;;14.04;79.13;100187.98;110806;1253;21956;-78
2022/08/01 02:51:08;;;;;;;11.10;8.50;;;;;;;14.03;79.22;100189.34;110795;1253;21952;-78
2022/08/01 02:53:40;;;;;;;9.60;8.60;;;;;;;14.03;79.35;100191.46;110669;1254;21966;-77
2022/08/01 02:56:15;;;;;;;9.80;8.90;;;;;;;14.04;79.45;100190.23;110672;1253;22011;-77
2022/08/01 02:58:45;;;;;;;9.60;8.60;;;;;;;14.06;79.53;100194.02;110619;1251;21965;-77
2022/08/01 03:01:17;;;;;;;11.90;10.10;;;;;;;14.10;79.59;100195.80;110812;1251;24283;-77
2022/08/01 03:03:48;;;;;;;10.70;9.80;;;;;;;14.13;79.53;100194.42;110890;1251;22041;-77
2022/08/01 03:06:17;;;;;;;10.80;9.10;;;;;;;14.16;79.45;100194.02;110491;1254;21966;-77
2022/08/01 03:08:48;;;;;;;10.30;9.50;;;;;;;14.18;79.39;100195.60;110734;1253;21958;-77
2022/08/01 03:11:18;;;;;;;10.50;9.50;;;;;;;14.19;79.30;100193.89;110689;1254;23059;-76
2022/08/01 03:13:50;;;;;;;12.80;9.70;;;;;;;14.19;79.18;100192.46;110645;1254;22746;-77
2022/08/01 03:16:21;;;;;;;11.00;9.90;;;;;;;14.18;79.01;100191.27;110700;1254;23789;-76
2022/08/01 03:18:56;;;;;;;11.60;10.60;;;;;;;14.16;78.96;100184.11;110505;1253;24143;-77
2022/08/01 03:21:27;;;;;;;9.50;8.60;;;;;;;14.13;78.81;100178.86;110849;1253;23024;-77
2022/08/01 03:23:59;;;;;;;10.50;8.70;;;;;;;14.09;78.73;100177.16;110642;1254;22022;-76
2022/08/01 03:26:31;;;;;;;10.00;9.00;;;;;;;14.06;78.90;100182.16;110688;1253;21990;-77
2022/08/01 03:29:14;;;;;;;9.10;8.20;;;;;;;14.03;78.76;100184.03;110770;1251;23027;-77
2022/08/01 03:31:46;;;;;;;9.20;8.50;;;;;;;14.01;78.80;100186.25;110701;1251;24451;-78
2022/08/01 03:34:16;;;;;;;10.60;8.50;;;;;;;13.98;78.87;100190.16;110528;1256;21959;-77
2022/08/01 03:36:55;;;;;;;9.50;8.60;;;;;;;13.94;78.77;100186.98;110704;1254;23056;-77
2022/08/01 03:39:32;;;;;;;11.20;9.00;;;;;;;13.92;79.05;100178.71;110769;1251;21962;-78
2022/08/01 03:42:12;;;;;;;10.00;9.10;;;;;;;13.91;79.06;100177.98;110635;1253;22012;-77
2022/08/01 03:44:52;;;;;;;9.50;8.60;;;;;;;13.87;79.08;100177.21;110758;1253;23749;-77
2022/08/01 03:47:29;;;;;;;10.30;8.30;;;;;;;13.84;79.20;100177.03;110639;1254;21958;-77
2022/08/01 03:50:00;;;;;;;12.20;9.10;;;;;;;13.83;79.33;100173.92;110806;1254;21965;-77
2022/08/01 03:52:32;;;;;;;10.70;9.00;;;;;;;13.83;79.29;100175.19;110704;1254;23580;-77
2022/08/01 03:55:06;;;;;;;;;;;;;;;13.83;79.44;100176.80;110652;1253;23795;-77
2022/08/01 03:57:36;;;;;;;10.40;9.50;;;;;;;13.78;79.84;100177.92;110659;1254;21962;-77
2022/08/01 04:00:08;;;;;;;11.80;8.90;;;;;;;13.84;80.20;100182.01;110587;1253;21998;-76
2022/08/01 04:02:41;;;;;;;9.30;8.30;;;;;;;13.95;80.46;100186.67;110646;1254;23046;-78
2022/08/01 04:05:11;;;;;;;9.30;8.50;;;;;;;14.03;80.41;100188.88;110757;1253;23680;-77
2022/08/01 04:07:42;;;;;;;11.40;9.70;;;;;;;14.11;80.39;100189.14;110498;1254;23060;-77
2022/08/01 04:10:11;;;;;;;;;;;;;;;14.20;80.43;100188.66;110519;1253;21946;-77
2022/08/01 04:12:40;;;;;;;9.10;8.20;;;;;;;14.23;80.66;100192.15;110808;1253;21953;-77
2022/08/01 04:15:09;;;;;;;9.60;8.50;;;;;;;14.32;80.64;100191.60;110701;1251;23011;-75
2022/08/01 04:17:38;;;;;;;10.60;9.60;;;;;;;14.46;80.80;100189.11;110716;1251;23716;-76
2022/08/01 04:20:07;;;;;;;10.30;9.20;;;;;;;14.59;80.54;100189.10;110826;1251;21987;-76
2022/08/01 04:22:36;;;;;;;13.80;8.30;;;;;;;14.70;80.37;100192.17;110721;1252;23027;-76
2022/08/01 04:25:35;;;;;;;13.80;10.10;;;;;;;14.82;80.29;100193.41;110647;1252;22371;-76
2022/08/01 04:28:07;;;;;;;11.20;9.60;;;;;;;14.94;80.08;100197.31;110709;1254;23745;-77
2022/08/01 04:30:39;;;;;;;12.60;9.70;;;;;;;15.04;79.92;100194.05;110531;1254;21954;-76
2022/08/01 04:33:09;;;;;;;26.10;12.10;;;;;;;15.17;79.85;100190.92;110762;1254;23044;-76
2022/08/01 04:35:41;;;;;;;15.50;11.10;;;;;;;15.32;79.81;100194.30;110907;1251;21953;-76
2022/08/01 04:38:33;;;;;;;17.90;13.20;;;;;;;15.45;79.65;100192.23;110911;1251;23742;-76
2022/08/01 04:41:06;;;;;;;15.40;13.40;;;;;;;15.59;79.45;100187.95;110805;1251;23325;-76
2022/08/01 04:43:38;;;;;;;19.20;15.10;;;;;;;15.72;79.14;100182.58;110878;1251;21922;-77
2022/08/01 04:46:08;;;;;;;17.30;15.40;;;;;;;15.85;79.03;100180.80;110862;1251;23581;-77
2022/08/01 04:48:39;;;;;;;18.50;15.40;;;;;;;16.01;78.90;100185.81;110540;1251;21959;-77
2022/08/01 04:51:16;;;;;;;16.90;14.90;;;;;;;16.15;78.68;100184.45;111005;1251;23665;-76
2022/08/01 04:53:48;;;;;;;18.60;16.30;;;;;;;16.31;78.48;100185.67;110772;1251;23590;-77
2022/08/01 04:56:20;;;;;;;17.10;15.50;;;;;;;16.45;78.18;100187.08;110772;1251;23604;-77
2022/08/01 04:59:39;;;;;;;17.50;16.00;;;;;;;16.61;77.96;100186.04;110151;1257;22733;-77
2022/08/01 05:01:50;;;;;;;18.20;16.50;;;;;;;16.73;77.31;100187.92;110391;1257;22911;-76
2022/08/01 05:04:19;;;;;;;;;;;;;;;16.83;76.99;100188.64;110402;1257;21944;-76
2022/08/01 05:06:49;;;;;;;14.50;13.20;;;;;;;16.90;77.19;100193.70;110216;1257;22186;-77
2022/08/01 05:09:18;;;;;;;13.70;12.40;;;;;;;17.03;77.00;100192.48;110377;1257;21968;-76
2022/08/01 05:11:47;;;;;;;15.20;12.70;;;;;;;17.15;76.58;100194.34;110240;1257;22219;-77
2022/08/01 05:14:15;;;;;;;13.10;11.40;;;;;;;17.26;76.19;100190.39;110350;1257;21972;-76
2022/08/01 05:16:45;;;;;;;12.10;10.80;;;;;;;17.36;75.80;100189.80;110250;1251;21952;-77
2022/08/01 05:19:14;;;;;;;12.10;11.00;;;;;;;17.43;75.54;100191.96;110869;1251;21958;-77
2022/08/01 05:21:43;;;;;;;13.00;10.40;;;;;;;17.51;75.31;100189.98;110851;1251;22013;-75
2022/08/01 05:24:12;;;;;;;13.00;9.50;;;;;;;17.58;75.07;100189.48;110565;1251;23033;-77
2022/08/01 05:26:41;;;;;;;14.20;12.30;;;;;;;17.63;74.77;100183.23;110928;1251;21950;-76
2022/08/01 05:29:10;;;;;;;13.70;12.30;;;;;;;17.65;74.41;100183.59;110891;1251;22956;-76
2022/08/01 05:31:39;;;;;;;15.30;12.00;;;;;;;17.64;74.34;100184.59;110548;1254;22880;-77
2022/08/01 05:34:08;;;;;;;13.80;12.40;;;;;;;17.64;74.25;100181.01;110750;1251;21955;-76
2022/08/01 05:36:43;;;;;;;14.70;13.30;;;;;;;17.63;74.23;100180.60;110953;1251;21970;-77
2022/08/01 05:39:14;;;;;;;15.10;13.60;;;;;;;17.59;74.08;100180.90;110861;1251;21974;-76
2022/08/01 05:41:42;;;;;;;13.70;12.50;;;;;;;17.53;73.94;100176.52;110883;1250;21958;-77
2022/08/01 05:44:11;;;;;;;12.70;11.80;;;;;;;17.48;74.15;100173.38;110921;1251;22259;-77
2022/08/01 05:46:40;;;;;;;10.90;9.90;;;;;;;17.46;74.20;100175.60;110947;1251;23574;-76
2022/08/01 05:49:09;;;;;;;12.90;10.40;;;;;;;17.44;74.38;100178.85;110978;1251;24283;-76
2022/08/01 05:51:38;;;;;;;9.10;8.30;;;;;;;17.43;74.59;100178.13;110871;1251;21989;-76
2022/08/01 05:54:07;;;;;;;9.60;8.30;;;;;;;17.44;74.75;100179.44;110873;1251;22927;-76
2022/08/01 05:56:36;;;;;;;9.80;7.30;;;;;;;17.48;75.27;100180.35;110835;1251;21963;-76
2022/08/01 05:59:05;;;;;;;9.50;7.00;;;;;;;17.59;75.76;100182.61;110907;1251;23031;-76
2022/08/01 06:01:34;;;;;;;13.90;8.00;;;;;;;17.73;75.91;100179.05;110826;1251;21956;-77
2022/08/01 06:04:03;;;;;;;9.80;7.00;;;;;;;17.89;76.00;100177.98;110646;1254;21993;-76
2022/08/01 06:06:32;;;;;;;8.10;6.00;;;;;;;18.14;76.41;100177.66;110810;1253;22201;-76
2022/08/01 06:09:01;;;;;;;8.70;6.60;;;;;;;18.50;77.04;100179.67;110834;1250;23027;-77
2022/08/01 06:11:30;;;;;;;8.00;7.20;;;;;;;18.86;76.16;100180.33;110827;1251;22106;-77
2022/08/01 06:13:59;;;;;;;13.20;7.30;;;;;;;19.07;74.37;100184.33;110881;1250;23683;-77
2022/08/01 06:16:27;;;;;;;9.30;7.10;;;;;;;19.19;73.02;100184.95;110751;1253;21958;-75
2022/08/01 06:18:56;;;;;;;10.10;6.70;;;;;;;19.26;71.99;100184.05;110765;1253;23035;-76
2022/08/01 06:21:25;;;;;;;9.20;7.20;;;;;;;19.29;71.48;100182.59;110617;1250;24286;-77
2022/08/01 06:23:54;;;;;;;9.00;7.30;;;;;;;19.30;70.91;100185.02;110646;1251;23588;-77
2022/08/01 06:26:24;;;;;;;8.60;7.40;;;;;;;19.32;70.91;100185.67;109931;1260;21971;-76
2022/08/01 06:28:52;;;;;;;13.20;7.40;;;;;;;19.37;71.10;100186.16;110178;1259;23543;-77
2022/08/01 06:31:21;;;;;;;9.80;7.30;;;;;;;19.45;71.24;100183.25;110066;1260;23610;-77
2022/08/01 06:33:50;;;;;;;13.90;7.20;;;;;;;19.54;71.04;100187.25;110132;1260;22271;-77
2022/08/01 06:36:19;;;;;;;7.40;6.60;;;;;;;19.58;70.78;100186.91;110300;1259;21990;-76
2022/08/01 06:38:48;;;;;;;13.70;6.90;;;;;;;19.61;70.46;100194.52;109989;1260;22282;-77
2022/08/01 06:41:17;;;;;;;7.50;5.90;;;;;;;19.63;70.27;100195.13;110108;1259;22904;-76
2022/08/01 06:43:46;;;;;;;8.80;5.70;;;;;;;19.61;70.01;100195.39;110278;1254;22204;-78
2022/08/01 06:46:15;;;;;;;7.10;5.10;;;;;;;19.61;70.01;100195.39;110752;1253;21960;-77
2022/08/01 06:48:44;;;;;;;5.10;4.10;;;;;;;19.62;69.88;100192.46;110660;1254;23571;-77
2022/08/01 06:51:16;;;;;;;6.00;4.10;;;;;;;19.59;69.76;100190.84;110644;1254;24364;-81
2022/08/01 06:53:45;;;;;;;7.60;4.30;;;;;;;19.61;69.93;100186.83;110681;1253;23672;-78
2022/08/01 06:56:14;;;;;;;5.60;4.00;;;;;;;19.67;70.23;100181.17;110685;1251;23065;-78
2022/08/01 06:58:43;;;;;;;7.70;3.80;;;;;;;19.74;70.24;100177.94;110633;1253;21953;-77
2022/08/01 07:01:12;;;;;;;8.50;5.00;;;;;;;19.81;70.02;100180.17;110722;1251;21958;-78
2022/08/01 07:03:41;;;;;;;6.10;3.60;;;;;;;19.85;69.64;100180.23;110654;1251;22767;-77
2022/08/01 07:06:24;;;;;;;8.40;3.70;;;;;;;19.86;69.37;100181.52;110850;1251;22877;-78
2022/08/01 07:08:53;;;;;;;5.40;3.50;;;;;;;19.86;69.17;100185.98;110734;1251;21962;-78
2022/08/01 07:11:23;;;;;;;7.90;3.30;;;;;;;19.89;69.13;100181.77;110860;1251;24286;-78
2022/08/01 07:13:52;;;;;;;7.30;5.30;;;;;;;19.97;69.16;100175.18;110718;1254;23590;-78
2022/08/01 07:16:21;;;;;;;4.80;3.00;;;;;;;20.11;69.19;100178.27;110664;1254;22758;-77
2022/08/01 07:18:51;;;;;;;7.00;3.80;;;;;;;20.18;68.27;100176.03;110692;1250;22379;-77
2022/08/01 07:21:20;;;;;;;4.60;3.30;;;;;;;20.26;68.10;100177.16;110660;1254;21957;-77
2022/08/01 07:24:12;;;;;;;7.70;3.30;;;;;;;20.33;68.11;100179.35;110807;1253;23661;-77
2022/08/01 07:26:48;;;;;;;5.50;3.40;;;;;;;20.43;67.64;100176.01;110584;1254;23600;-77
2022/08/01 07:29:25;;;;;;;15.50;3.40;;;;;;;20.51;67.15;100178.08;110553;1253;21954;-78
2022/08/01 07:31:56;;;;;;;3.90;3.30;;;;;;;20.61;67.17;100181.25;110620;1253;23752;-78
2022/08/01 07:34:25;;;;;;;;;;;;;;;20.66;66.59;100183.28;110756;1251;22184;-78
2022/08/01 07:36:54;;;;;;;5.80;3.70;;;;;;;20.63;66.46;100181.09;110868;1250;24267;-78
2022/08/01 07:39:23;;;;;;;7.50;3.80;;;;;;;20.64;66.02;100186.10;110883;1250;21952;-78
2022/08/01 07:41:52;;;;;;;6.70;3.50;;;;;;;20.66;65.93;100186.17;110727;1251;21958;-78
2022/08/01 07:44:36;;;;;;;5.40;3.90;;;;;;;20.73;66.26;100180.24;110891;1250;23033;-78
2022/08/01 07:47:06;;;;;;;3.80;3.10;;;;;;;20.83;66.30;100184.83;110732;1251;22291;-78
2022/08/01 07:49:35;;;;;;;5.60;3.10;;;;;;;20.85;65.66;100186.23;110707;1251;21959;-78
2022/08/01 07:52:09;;;;;;;8.70;3.60;;;;;;;20.81;64.95;100185.28;110075;1260;21963;-78
2022/08/01 07:54:38;;;;;;;6.20;3.70;;;;;;;20.78;64.87;100190.16;110252;1259;21979;-78
2022/08/01 07:57:07;;;;;;;4.90;3.70;;;;;;;20.77;65.02;100190.37;109990;1260;22988;-77
2022/08/01 07:59:35;;;;;;;8.10;3.80;;;;;;;20.81;65.08;100192.86;110251;1259;23712;-78
2022/08/01 08:02:04;;;;;;;5.20;3.80;;;;;;;20.86;65.20;100189.15;110144;1260;21965;-78
2022/08/01 08:04:34;;;;;;;5.40;4.10;;;;;;;20.93;65.06;100186.97;110101;1260;23661;-77
2022/08/01 08:07:03;;;;;;;6.90;3.80;;;;;;;21.06;65.28;100188.88;109720;1260;322482;-78
2022/08/01 08:09:32;;;;;;;5.00;3.50;;;;;;;21.24;65.38;100196.48;110127;1256;23671;-78
2022/08/01 08:12:06;;;;;;;8.40;3.70;;;;;;;21.41;65.02;100199.66;110695;1254;22308;-77
2022/08/01 08:14:36;;;;;;;7.60;4.10;;;;;;;21.56;64.46;100200.52;110147;1257;22437;-78
2022/08/01 08:17:06;;;;;;;9.70;4.60;;;;;;;21.66;63.43;100194.54;110186;1258;23583;-81
2022/08/01 08:19:37;;;;;;;5.60;4.60;;;;;;;21.65;62.73;100191.84;110143;1260;21953;-80
2022/08/01 08:22:07;;;;;;;;;;;;;;;21.66;63.05;100194.86;110335;1257;21973;-78
2022/08/01 08:24:37;;;;;;;6.10;4.30;;;;;;;21.66;63.17;100197.52;109681;1261;21987;-76
2022/08/01 08:27:14;;;;;;;8.90;4.90;;;;;;;21.72;63.18;100197.23;109565;1264;21994;-77
2022/08/01 08:29:43;;;;;;;10.50;6.80;;;;;;;21.82;62.93;100193.23;109612;1263;24995;-76
2022/08/01 08:32:13;;;;;;;7.00;4.40;;;;;;;21.86;62.19;100193.17;109802;1260;23620;-78
2022/08/01 08:34:41;;;;;;;5.40;4.60;;;;;;;21.94;62.24;100196.42;110299;1257;23156;-79
2022/08/01 08:37:11;;;;;;;7.40;3.90;;;;;;;22.01;61.77;100198.40;110374;1259;21972;-79
2022/08/01 08:39:43;;;;;;;5.80;4.30;;;;;;;22.02;61.48;100195.90;109533;1266;23612;-80
2022/08/01 08:42:12;;;;;;;5.90;4.80;;;;;;;22.08;61.35;100192.22;109836;1260;22103;-83
2022/08/01 08:44:42;;;;;;;6.90;4.40;;;;;;;22.15;61.21;100188.09;110130;1260;21969;-78
2022/08/01 08:47:14;;;;;;;6.50;4.70;;;;;;;22.25;61.22;100189.20;109949;1260;23580;-77
2022/08/01 08:49:56;;;;;;;5.30;4.40;;;;;;;22.37;60.91;100194.77;109937;1260;21966;-77
2022/08/01 08:52:26;;;;;;;7.50;4.50;;;;;;;22.51;60.23;100200.95;110040;1260;23044;-78
2022/08/01 08:54:56;;;;;;;16.10;5.70;;;;;;;22.58;59.53;100204.64;110051;1260;22741;-78
2022/08/01 08:57:25;;;;;;;5.10;4.60;;;;;;;22.63;59.37;100207.50;110119;1254;21959;-78
2022/08/01 08:59:55;;;;;;;7.40;5.10;;;;;;;22.68;58.73;100215.63;110662;1254;21965;-77
2022/08/01 09:02:23;;;;;;;7.80;4.50;;;;;;;22.65;57.95;100214.79;110626;1254;21954;-77
2022/08/01 09:04:52;;;;;;;5.10;4.60;;;;;;;22.60;58.13;100220.16;110664;1253;22728;-78
2022/08/01 09:07:22;;;;;;;4.70;4.00;;;;;;;22.58;58.16;100223.69;110771;1252;21959;-77
2022/08/01 09:09:51;;;;;;;5.20;4.50;;;;;;;22.54;57.97;100222.30;110867;1253;21953;-79
2022/08/01 09:12:21;;;;;;;8.50;5.40;;;;;;;22.50;58.04;100224.14;110673;1253;21965;-77
2022/08/01 09:14:53;;;;;;;7.10;5.40;;;;;;;22.49;58.22;100225.00;110718;1251;21976;-78
2022/08/01 09:17:23;;;;;;;8.30;5.90;;;;;;;22.54;58.48;100226.07;110694;1251;22052;-78
2022/08/01 09:19:55;;;;;;;4.90;4.40;;;;;;;22.57;58.29;100228.09;110715;1250;23681;-78
2022/08/01 09:22:33;;;;;;;7.10;4.70;;;;;;;22.61;58.67;100229.02;110196;1257;23586;-78
2022/08/01 09:25:06;;;;;;;6.50;4.90;;;;;;;22.66;58.51;100227.56;110179;1257;22003;-77
2022/08/01 09:27:38;;;;;;;7.80;4.80;;;;;;;22.68;58.19;100230.77;110359;1257;23833;-79
2022/08/01 09:30:18;;;;;;;10.10;4.70;;;;;;;22.72;58.51;100231.14;110370;1257;24038;-78
2022/08/01 09:33:02;;;;;;;5.60;4.90;;;;;;;22.78;57.87;100227.50;110232;1257;21978;-79
2022/08/01 09:35:44;;;;;;;5.80;4.90;;;;;;;22.82;57.94;100226.95;110285;1256;21960;-79
2022/08/01 09:38:22;;;;;;;6.90;4.60;;;;;;;22.93;58.19;100227.36;110386;1256;23603;-80
2022/08/01 09:41:00;;;;;;;9.20;6.00;;;;;;;23.19;58.71;100224.14;110422;1256;24280;-80
2022/08/01 09:43:31;;;;;;;6.70;5.20;;;;;;;23.65;59.54;100222.73;110049;1256;21980;-80
2022/08/01 09:46:12;;;;;;;10.20;4.70;;;;;;;24.11;57.92;100222.49;109986;1257;22586;-80
2022/08/01 09:49:03;;;;;;;6.80;5.20;;;;;;;24.37;55.72;100223.20;110712;1250;23590;-77
2022/08/01 09:51:39;;;;;;;8.20;5.10;;;;;;;24.52;54.97;100226.59;110913;1250;22180;-78
2022/08/01 09:54:33;;;;;;;6.90;4.50;;;;;;;24.67;54.35;100224.86;110724;1250;23054;-78
2022/08/01 09:57:18;;;;;;;9.50;5.00;;;;;;;24.78;53.66;100223.61;110742;1253;23590;-77
2022/08/01 09:59:53;;;;;;;5.60;4.90;;;;;;;24.83;53.25;100219.67;110709;1253;22755;-77
2022/08/01 10:02:35;;;;;;;;;;;;;;;24.90;53.02;100221.05;110075;1257;22789;-77
2022/08/01 10:05:09;;;;;;;9.90;5.10;;;;;;;24.85;52.80;100222.43;110173;1258;22239;-77
2022/08/01 10:07:59;;;;;;;5.60;4.70;;;;;;;24.78;52.52;100222.70;110102;1258;23060;-76
2022/08/01 10:10:28;;;;;;;5.50;5.00;;;;;;;24.80;52.97;100221.73;110030;1257;23033;-77
2022/08/01 10:12:59;;;;;;;;;;;;;;;24.91;53.31;100220.79;110326;1257;23709;-76
2022/08/01 10:15:30;;;;;;;5.00;4.40;;;;;;;24.96;52.78;100217.40;110167;1258;24351;-77
2022/08/01 10:18:08;;;;;;;5.80;5.30;;;;;;;25.00;52.51;100219.30;110189;1257;24296;-77
2022/08/01 10:20:54;;;;;;;7.00;6.30;;;;;;;25.08;52.39;100218.02;110351;1253;21969;-77
2022/08/01 10:23:29;;;;;;;8.80;5.90;;;;;;;25.11;51.97;100214.64;110714;1253;23681;-76
2022/08/01 10:26:10;;;;;;;12.10;5.40;;;;;;;25.10;51.61;100214.14;110635;1253;21979;-77
2022/08/01 10:28:44;;;;;;;11.40;5.10;;;;;;;25.09;51.78;100215.16;110904;1250;22726;-77
2022/08/01 10:31:14;;;;;;;11.20;5.30;;;;;;;25.20;52.38;100213.09;110663;1250;21958;-77
2022/08/01 10:33:43;;;;;;;7.00;5.60;;;;;;;25.32;51.66;100209.60;110435;1256;21985;-78
2022/08/01 10:36:22;;;;;;;5.40;4.90;;;;;;;25.32;51.31;100209.33;110469;1256;23084;-77
2022/08/01 10:38:55;;;;;;;7.70;4.90;;;;;;;25.31;51.10;100206.46;110224;1256;22745;-77
2022/08/01 10:41:26;;;;;;;8.00;5.00;;;;;;;25.37;51.55;100205.13;110384;1256;21978;-77
2022/08/01 10:43:56;;;;;;;9.00;4.60;;;;;;;25.52;51.79;100207.88;109957;1260;23187;-77
2022/08/01 10:46:25;;;;;;;10.80;4.40;;;;;;;25.64;51.08;100205.55;109949;1260;21974;-77
2022/08/01 10:49:16;;;;;;;10.20;5.30;;;;;;;25.74;50.90;100201.44;110132;1260;22068;-77
2022/08/01 10:51:46;;;;;;;5.90;5.20;;;;;;;25.83;50.66;100200.52;110276;1257;22110;-77
2022/08/01 10:54:24;;;;;;;8.90;4.90;;;;;;;25.91;50.74;100201.13;110508;1256;22004;-76
2022/08/01 10:56:55;;;;;;;5.20;4.40;;;;;;;26.01;50.63;100195.47;110383;1258;21937;-77
2022/08/01 10:59:29;;;;;;;7.30;4.90;;;;;;;26.13;50.42;100197.39;110397;1256;21969;-77
2022/08/01 11:02:31;;;;;;;6.00;5.00;;;;;;;26.28;50.15;100196.33;110608;1251;23593;-77
2022/08/01 11:06:22;;;;;;;;;;;;;;;;;;;;;
2022/08/01 11:10:10;;;;;;;6.00;5.00;;;;;;;26.52;49.27;100196.59;110866;1251;21993;-79
2022/08/01 11:13:24;;;;;;;8.30;4.70;;;;;;;26.56;49.00;100195.71;110434;1253;21962;-78
2022/08/01 11:16:30;;;;;;;7.30;4.80;;;;;;;26.61;49.53;100195.63;109979;1258;23570;-79
2022/08/01 11:19:15;;;;;;;6.00;5.40;;;;;;;26.66;49.00;100192.57;109879;1258;22737;-80
2022/08/01 11:21:55;;;;;;;6.00;5.40;;;;;;;26.69;48.90;100192.60;110233;1257;23586;-80
2022/08/01 11:25:06;;;;;;;;;;;;;;;;;;;;;
2022/08/01 11:28:25;;;;;;;6.40;4.60;;;;;;;26.88;48.28;100195.54;110419;1257;23598;-78
2022/08/01 11:31:41;;;;;;;5.70;5.10;;;;;;;26.90;47.90;100196.06;110066;1257;23844;-79
2022/08/01 11:35:15;;;;;;;7.10;4.80;;;;;;;26.94;48.12;100196.15;110459;1253;23026;-81
2022/08/01 11:38:35;;;;;;;5.00;4.50;;;;;;;26.92;47.61;100193.14;110126;1259;23604;-81
2022/08/01 11:41:36;;;;;;;8.00;5.00;;;;;;;26.93;47.83;100193.30;110115;1259;22432;-79
2022/08/01 11:44:27;;;;;;;9.10;5.30;;;;;;;26.93;47.70;100193.29;109616;1260;22746;-77
2022/08/01 11:47:11;;;;;;;6.70;4.00;;;;;;;26.98;48.27;100195.96;109562;1260;21974;-77
2022/08/01 11:49:45;;;;;;;8.30;4.30;;;;;;;27.06;47.69;100198.04;109699;1260;23818;-78
2022/08/01 11:52:24;;;;;;;5.60;4.60;;;;;;;27.10;47.29;100200.40;109268;1263;22216;-77
2022/08/01 11:55:04;;;;;;;4.70;3.90;;;;;;;27.14;46.98;100201.91;109501;1263;22396;-77